sensor_id;sensor_type;location;lat;lon;timestamp;temperature;humidity
14908;DHT22;7545;52.092;7.006;2023-11-21T00:02:14;8.80;99.90
14908;DHT22;7545;52.092;7.006;2023-11-21T00:04:40;8.80;99.90
14908;DHT22;7545;52.092;7.006;2023-11-21T00:07:09;8.80;99.90
14908;DHT22;7545;52.092;7.006;2023-11-21T00:09:34;8.90;99.90
14908;DHT22;7545;52.092;7.006;2023-11-21T00:12:02;8.80;99.90
14908;DHT22;7545;52.092;7.006;2023-11-21T00:14:28;8.90;99.90
14908;DHT22;7545;52.092;7.006;2023-11-21T00:16:53;8.90;99.90
14908;DHT22;7545;52.092;7.006;2023-11-21T00:19:19;8.90;99.90
14908;DHT22;7545;52.092;7.006;2023-11-21T00:21:45;8.90;99.90
14908;DHT22;7545;52.092;7.006;2023-11-21T00:24:12;8.90;99.90
14908;DHT22;7545;52.092;7.006;2023-11-21T00:26:39;8.90;99.90
14908;DHT22;7545;52.092;7.006;2023-11-21T00:29:05;8.90;99.90
14908;DHT22;7545;52.092;7.006;2023-11-21T00:31:34;9.00;99.90
14908;DHT22;7545;52.092;7.006;2023-11-21T00:34:02;9.00;99.90
14908;DHT22;7545;52.092;7.006;2023-11-21T00:36:29;9.00;99.90
14908;DHT22;7545;52.092;7.006;2023-11-21T00:38:54;9.00;99.90
14908;DHT22;7545;52.092;7.006;2023-11-21T00:41:21;9.00;99.90
14908;DHT22;7545;52.092;7.006;2023-11-21T00:43:46;9.00;99.90
14908;DHT22;7545;52.092;7.006;2023-11-21T00:46:12;9.00;99.90
14908;DHT22;7545;52.092;7.006;2023-11-21T00:48:39;9.10;99.90
14908;DHT22;7545;52.092;7.006;2023-11-21T00:51:04;9.10;99.90
14908;DHT22;7545;52.092;7.006;2023-11-21T00:53:31;9.10;99.90
14908;DHT22;7545;52.092;7.006;2023-11-21T00:55:57;9.10;99.90
14908;DHT22;7545;52.092;7.006;2023-11-21T00:58:26;9.10;99.90
14908;DHT22;7545;52.092;7.006;2023-11-21T01:00:51;9.10;99.90
14908;DHT22;7545;52.092;7.006;2023-11-21T01:03:17;9.00;99.90
14908;DHT22;7545;52.092;7.006;2023-11-21T01:05:43;9.10;99.90
14908;DHT22;7545;52.092;7.006;2023-11-21T01:08:08;9.10;99.90
14908;DHT22;7545;52.092;7.006;2023-11-21T01:10:34;9.10;99.90
14908;DHT22;7545;52.092;7.006;2023-11-21T01:13:00;9.10;99.90
14908;DHT22;7545;52.092;7.006;2023-11-21T01:15:25;9.20;99.90
14908;DHT22;7545;52.092;7.006;2023-11-21T01:17:52;9.20;99.90
14908;DHT22;7545;52.092;7.006;2023-11-21T01:20:18;9.10;99.90
14908;DHT22;7545;52.092;7.006;2023-11-21T01:22:44;9.20;99.90
14908;DHT22;7545;52.092;7.006;2023-11-21T01:25:10;9.20;99.90
14908;DHT22;7545;52.092;7.006;2023-11-21T01:27:36;9.20;99.90
14908;DHT22;7545;52.092;7.006;2023-11-21T01:30:03;9.20;99.90
14908;DHT22;7545;52.092;7.006;2023-11-21T01:32:28;9.20;99.90
14908;DHT22;7545;52.092;7.006;2023-11-21T01:34:54;9.20;99.90
14908;DHT22;7545;52.092;7.006;2023-11-21T01:37:21;9.20;99.90
14908;DHT22;7545;52.092;7.006;2023-11-21T01:39:47;9.20;99.90
14908;DHT22;7545;52.092;7.006;2023-11-21T01:42:13;9.20;99.90
14908;DHT22;7545;52.092;7.006;2023-11-21T01:44:39;9.20;99.90
14908;DHT22;7545;52.092;7.006;2023-11-21T01:47:08;9.20;99.90
14908;DHT22;7545;52.092;7.006;2023-11-21T01:49:35;9.20;99.90
14908;DHT22;7545;52.092;7.006;2023-11-21T01:52:01;9.20;99.90
14908;DHT22;7545;52.092;7.006;2023-11-21T01:54:27;9.20;99.90
14908;DHT22;7545;52.092;7.006;2023-11-21T01:56:58;9.20;99.90
14908;DHT22;7545;52.092;7.006;2023-11-21T01:59:36;9.30;99.90
14908;DHT22;7545;52.092;7.006;2023-11-21T02:02:05;9.30;99.90
14908;DHT22;7545;52.092;7.006;2023-11-21T02:04:34;9.20;99.90
14908;DHT22;7545;52.092;7.006;2023-11-21T02:07:00;9.30;99.90
14908;DHT22;7545;52.092;7.006;2023-11-21T02:12:49;9.30;99.90
14908;DHT22;7545;52.092;7.006;2023-11-21T02:15:18;9.30;99.90
14908;DHT22;7545;52.092;7.006;2023-11-21T02:17:46;9.20;99.90
14908;DHT22;7545;52.092;7.006;2023-11-21T02:20:13;9.30;99.90
14908;DHT22;7545;52.092;7.006;2023-11-21T02:22:44;9.30;99.90
14908;DHT22;7545;52.092;7.006;2023-11-21T02:25:10;9.30;99.90
14908;DHT22;7545;52.092;7.006;2023-11-21T02:27:36;9.30;99.90
14908;DHT22;7545;52.092;7.006;2023-11-21T02:30:03;9.30;99.90
14908;DHT22;7545;52.092;7.006;2023-11-21T02:32:30;9.30;99.90
14908;DHT22;7545;52.092;7.006;2023-11-21T02:34:57;9.30;99.90
14908;DHT22;7545;52.092;7.006;2023-11-21T02:37:26;9.30;99.90
14908;DHT22;7545;52.092;7.006;2023-11-21T02:39:52;9.30;99.90
14908;DHT22;7545;52.092;7.006;2023-11-21T02:42:18;9.30;99.90
14908;DHT22;7545;52.092;7.006;2023-11-21T02:44:43;9.30;99.90
14908;DHT22;7545;52.092;7.006;2023-11-21T02:47:09;9.30;99.90
14908;DHT22;7545;52.092;7.006;2023-11-21T02:49:35;9.30;99.90
14908;DHT22;7545;52.092;7.006;2023-11-21T02:52:01;9.30;99.90
14908;DHT22;7545;52.092;7.006;2023-11-21T02:54:27;9.30;99.90
14908;DHT22;7545;52.092;7.006;2023-11-21T02:56:53;9.30;99.90
14908;DHT22;7545;52.092;7.006;2023-11-21T02:59:18;9.30;99.90
14908;DHT22;7545;52.092;7.006;2023-11-21T03:01:45;9.40;99.90
14908;DHT22;7545;52.092;7.006;2023-11-21T03:04:11;9.30;99.90
14908;DHT22;7545;52.092;7.006;2023-11-21T03:06:43;9.30;99.90
14908;DHT22;7545;52.092;7.006;2023-11-21T03:09:09;9.30;99.90
14908;DHT22;7545;52.092;7.006;2023-11-21T03:11:35;9.30;99.90
14908;DHT22;7545;52.092;7.006;2023-11-21T03:14:00;9.30;99.90
14908;DHT22;7545;52.092;7.006;2023-11-21T03:16:26;9.30;99.90
14908;DHT22;7545;52.092;7.006;2023-11-21T03:18:52;9.30;99.90
14908;DHT22;7545;52.092;7.006;2023-11-21T03:21:17;9.30;99.90
14908;DHT22;7545;52.092;7.006;2023-11-21T03:23:43;9.30;99.90
14908;DHT22;7545;52.092;7.006;2023-11-21T03:26:12;9.30;99.90
14908;DHT22;7545;52.092;7.006;2023-11-21T03:28:38;9.30;99.90
14908;DHT22;7545;52.092;7.006;2023-11-21T03:31:04;9.30;99.90
14908;DHT22;7545;52.092;7.006;2023-11-21T03:33:29;9.30;99.90
14908;DHT22;7545;52.092;7.006;2023-11-21T03:35:55;9.30;99.90
14908;DHT22;7545;52.092;7.006;2023-11-21T03:38:20;9.30;99.90
14908;DHT22;7545;52.092;7.006;2023-11-21T03:40:46;9.30;99.90
14908;DHT22;7545;52.092;7.006;2023-11-21T03:43:13;9.30;99.90
14908;DHT22;7545;52.092;7.006;2023-11-21T03:45:38;9.30;99.90
14908;DHT22;7545;52.092;7.006;2023-11-21T03:48:06;9.30;99.90
14908;DHT22;7545;52.092;7.006;2023-11-21T03:50:31;9.30;99.90
14908;DHT22;7545;52.092;7.006;2023-11-21T03:52:57;9.30;99.90
14908;DHT22;7545;52.092;7.006;2023-11-21T03:55:23;9.30;99.90
14908;DHT22;7545;52.092;7.006;2023-11-21T03:57:52;9.30;99.90
14908;DHT22;7545;52.092;7.006;2023-11-21T04:00:18;9.30;99.90
14908;DHT22;7545;52.092;7.006;2023-11-21T04:02:45;9.30;99.90
14908;DHT22;7545;52.092;7.006;2023-11-21T04:05:11;9.30;99.90
14908;DHT22;7545;52.092;7.006;2023-11-21T04:07:37;9.30;99.90
14908;DHT22;7545;52.092;7.006;2023-11-21T04:10:04;9.30;99.90
14908;DHT22;7545;52.092;7.006;2023-11-21T04:12:34;9.30;99.90
14908;DHT22;7545;52.092;7.006;2023-11-21T04:15:00;9.30;99.90
14908;DHT22;7545;52.092;7.006;2023-11-21T04:17:25;9.30;99.90
14908;DHT22;7545;52.092;7.006;2023-11-21T04:19:51;9.30;99.90
14908;DHT22;7545;52.092;7.006;2023-11-21T04:22:16;9.20;99.90
14908;DHT22;7545;52.092;7.006;2023-11-21T04:24:42;9.20;99.90
14908;DHT22;7545;52.092;7.006;2023-11-21T04:27:11;9.20;99.90
14908;DHT22;7545;52.092;7.006;2023-11-21T04:29:36;9.20;99.90
14908;DHT22;7545;52.092;7.006;2023-11-21T04:32:02;9.20;99.90
14908;DHT22;7545;52.092;7.006;2023-11-21T04:34:28;9.20;99.90
14908;DHT22;7545;52.092;7.006;2023-11-21T04:36:56;9.20;99.90
14908;DHT22;7545;52.092;7.006;2023-11-21T04:39:22;9.30;99.90
14908;DHT22;7545;52.092;7.006;2023-11-21T04:41:48;9.30;99.90
14908;DHT22;7545;52.092;7.006;2023-11-21T04:44:13;9.30;99.90
14908;DHT22;7545;52.092;7.006;2023-11-21T04:46:39;9.20;99.90
14908;DHT22;7545;52.092;7.006;2023-11-21T04:49:04;9.20;99.90
14908;DHT22;7545;52.092;7.006;2023-11-21T04:51:30;9.20;99.90
14908;DHT22;7545;52.092;7.006;2023-11-21T04:53:57;9.20;99.90
14908;DHT22;7545;52.092;7.006;2023-11-21T04:56:23;9.20;99.90
14908;DHT22;7545;52.092;7.006;2023-11-21T04:58:48;9.30;99.90
14908;DHT22;7545;52.092;7.006;2023-11-21T05:01:14;9.20;99.90
14908;DHT22;7545;52.092;7.006;2023-11-21T05:03:40;9.20;99.90
14908;DHT22;7545;52.092;7.006;2023-11-21T05:06:06;9.20;99.90
14908;DHT22;7545;52.092;7.006;2023-11-21T05:08:32;9.20;99.90
14908;DHT22;7545;52.092;7.006;2023-11-21T05:10:57;9.20;99.90
14908;DHT22;7545;52.092;7.006;2023-11-21T05:13:23;9.20;99.90
14908;DHT22;7545;52.092;7.006;2023-11-21T05:15:55;9.20;99.90
14908;DHT22;7545;52.092;7.006;2023-11-21T05:18:24;9.20;99.90
14908;DHT22;7545;52.092;7.006;2023-11-21T05:20:52;9.20;99.90
14908;DHT22;7545;52.092;7.006;2023-11-21T05:23:19;9.10;99.90
14908;DHT22;7545;52.092;7.006;2023-11-21T05:25:44;9.20;99.90
14908;DHT22;7545;52.092;7.006;2023-11-21T05:28:11;9.20;99.90
14908;DHT22;7545;52.092;7.006;2023-11-21T05:30:37;9.20;99.90
14908;DHT22;7545;52.092;7.006;2023-11-21T05:33:04;9.20;99.90
14908;DHT22;7545;52.092;7.006;2023-11-21T05:35:30;9.20;99.90
14908;DHT22;7545;52.092;7.006;2023-11-21T05:37:56;9.20;99.90
14908;DHT22;7545;52.092;7.006;2023-11-21T05:40:22;9.20;99.90
14908;DHT22;7545;52.092;7.006;2023-11-21T05:42:48;9.20;99.90
14908;DHT22;7545;52.092;7.006;2023-11-21T05:45:14;9.20;99.90
14908;DHT22;7545;52.092;7.006;2023-11-21T05:47:42;9.20;99.90
14908;DHT22;7545;52.092;7.006;2023-11-21T05:50:09;9.20;99.90
14908;DHT22;7545;52.092;7.006;2023-11-21T05:52:38;9.20;99.90
14908;DHT22;7545;52.092;7.006;2023-11-21T05:55:04;9.20;99.90
14908;DHT22;7545;52.092;7.006;2023-11-21T05:57:37;9.20;99.90
14908;DHT22;7545;52.092;7.006;2023-11-21T06:00:07;9.20;99.90
14908;DHT22;7545;52.092;7.006;2023-11-21T06:02:39;9.20;99.90
14908;DHT22;7545;52.092;7.006;2023-11-21T06:05:07;9.20;99.90
14908;DHT22;7545;52.092;7.006;2023-11-21T06:07:33;9.20;99.90
14908;DHT22;7545;52.092;7.006;2023-11-21T06:09:58;9.20;99.90
14908;DHT22;7545;52.092;7.006;2023-11-21T06:12:24;9.20;99.90
14908;DHT22;7545;52.092;7.006;2023-11-21T06:14:50;9.20;99.90
14908;DHT22;7545;52.092;7.006;2023-11-21T06:17:16;9.20;99.90
14908;DHT22;7545;52.092;7.006;2023-11-21T06:19:43;9.20;99.90
14908;DHT22;7545;52.092;7.006;2023-11-21T06:22:11;9.20;99.90
14908;DHT22;7545;52.092;7.006;2023-11-21T06:24:36;9.10;99.90
14908;DHT22;7545;52.092;7.006;2023-11-21T06:27:04;9.20;99.90
14908;DHT22;7545;52.092;7.006;2023-11-21T06:29:30;9.20;99.90
14908;DHT22;7545;52.092;7.006;2023-11-21T06:31:56;9.20;99.90
14908;DHT22;7545;52.092;7.006;2023-11-21T06:34:21;9.20;99.90
14908;DHT22;7545;52.092;7.006;2023-11-21T06:36:47;9.20;99.90
14908;DHT22;7545;52.092;7.006;2023-11-21T06:39:13;9.20;99.90
14908;DHT22;7545;52.092;7.006;2023-11-21T06:41:40;9.20;99.90
14908;DHT22;7545;52.092;7.006;2023-11-21T06:44:06;9.20;99.90
14908;DHT22;7545;52.092;7.006;2023-11-21T06:46:31;9.20;99.90
14908;DHT22;7545;52.092;7.006;2023-11-21T06:48:57;9.20;99.90
14908;DHT22;7545;52.092;7.006;2023-11-21T06:51:22;9.20;99.90
14908;DHT22;7545;52.092;7.006;2023-11-21T06:53:48;9.10;99.90
14908;DHT22;7545;52.092;7.006;2023-11-21T06:56:17;9.20;99.90
14908;DHT22;7545;52.092;7.006;2023-11-21T06:58:44;9.10;99.90
14908;DHT22;7545;52.092;7.006;2023-11-21T07:01:11;9.20;99.90
14908;DHT22;7545;52.092;7.006;2023-11-21T07:03:37;9.20;99.90
14908;DHT22;7545;52.092;7.006;2023-11-21T07:06:03;9.10;99.90
14908;DHT22;7545;52.092;7.006;2023-11-21T07:08:29;9.10;99.90
14908;DHT22;7545;52.092;7.006;2023-11-21T07:10:54;9.10;99.90
14908;DHT22;7545;52.092;7.006;2023-11-21T07:13:20;9.10;99.90
14908;DHT22;7545;52.092;7.006;2023-11-21T07:15:47;9.10;99.90
14908;DHT22;7545;52.092;7.006;2023-11-21T07:18:13;9.10;99.90
14908;DHT22;7545;52.092;7.006;2023-11-21T07:20:39;9.10;99.90
14908;DHT22;7545;52.092;7.006;2023-11-21T07:23:04;9.10;99.90
14908;DHT22;7545;52.092;7.006;2023-11-21T07:25:31;9.10;99.90
14908;DHT22;7545;52.092;7.006;2023-11-21T07:27:57;9.10;99.90
14908;DHT22;7545;52.092;7.006;2023-11-21T07:30:22;9.10;99.90
14908;DHT22;7545;52.092;7.006;2023-11-21T07:32:48;9.10;99.90
14908;DHT22;7545;52.092;7.006;2023-11-21T07:35:14;9.10;99.90
14908;DHT22;7545;52.092;7.006;2023-11-21T07:37:40;9.10;99.90
14908;DHT22;7545;52.092;7.006;2023-11-21T07:40:06;9.10;99.90
14908;DHT22;7545;52.092;7.006;2023-11-21T07:42:34;9.10;99.90
14908;DHT22;7545;52.092;7.006;2023-11-21T07:44:59;9.10;99.90
14908;DHT22;7545;52.092;7.006;2023-11-21T07:47:25;9.20;99.90
14908;DHT22;7545;52.092;7.006;2023-11-21T07:49:53;9.10;99.90
14908;DHT22;7545;52.092;7.006;2023-11-21T07:52:18;9.10;99.90
14908;DHT22;7545;52.092;7.006;2023-11-21T07:54:46;9.10;99.90
14908;DHT22;7545;52.092;7.006;2023-11-21T07:57:12;9.10;99.90
14908;DHT22;7545;52.092;7.006;2023-11-21T07:59:39;9.10;99.90
14908;DHT22;7545;52.092;7.006;2023-11-21T08:02:06;9.20;99.90
14908;DHT22;7545;52.092;7.006;2023-11-21T08:04:32;9.20;99.90
14908;DHT22;7545;52.092;7.006;2023-11-21T08:06:58;9.20;99.90
14908;DHT22;7545;52.092;7.006;2023-11-21T08:09:23;9.20;99.90
14908;DHT22;7545;52.092;7.006;2023-11-21T08:11:49;9.10;99.90
14908;DHT22;7545;52.092;7.006;2023-11-21T08:14:15;9.20;99.90
14908;DHT22;7545;52.092;7.006;2023-11-21T08:16:41;9.20;99.90
14908;DHT22;7545;52.092;7.006;2023-11-21T08:19:06;9.20;99.90
14908;DHT22;7545;52.092;7.006;2023-11-21T08:21:34;9.20;99.90
14908;DHT22;7545;52.092;7.006;2023-11-21T08:23:59;9.20;99.90
14908;DHT22;7545;52.092;7.006;2023-11-21T08:26:25;9.20;99.90
14908;DHT22;7545;52.092;7.006;2023-11-21T08:28:51;9.20;99.90
14908;DHT22;7545;52.092;7.006;2023-11-21T08:31:28;9.20;99.90
14908;DHT22;7545;52.092;7.006;2023-11-21T08:33:54;9.20;99.90
14908;DHT22;7545;52.092;7.006;2023-11-21T08:36:21;9.20;99.90
14908;DHT22;7545;52.092;7.006;2023-11-21T08:38:48;9.20;99.90
14908;DHT22;7545;52.092;7.006;2023-11-21T08:41:14;9.30;99.90
14908;DHT22;7545;52.092;7.006;2023-11-21T08:43:41;9.20;99.90
14908;DHT22;7545;52.092;7.006;2023-11-21T08:46:07;9.30;99.90
14908;DHT22;7545;52.092;7.006;2023-11-21T08:48:36;9.30;99.90
14908;DHT22;7545;52.092;7.006;2023-11-21T08:51:03;9.30;99.90
14908;DHT22;7545;52.092;7.006;2023-11-21T08:53:29;9.30;99.90
14908;DHT22;7545;52.092;7.006;2023-11-21T08:55:56;9.30;99.90
14908;DHT22;7545;52.092;7.006;2023-11-21T08:58:22;9.30;99.90
14908;DHT22;7545;52.092;7.006;2023-11-21T09:00:47;9.40;99.90
14908;DHT22;7545;52.092;7.006;2023-11-21T09:03:13;9.40;99.90
14908;DHT22;7545;52.092;7.006;2023-11-21T09:05:39;9.40;99.90
14908;DHT22;7545;52.092;7.006;2023-11-21T09:08:05;9.40;99.90
14908;DHT22;7545;52.092;7.006;2023-11-21T09:10:31;9.50;99.90
14908;DHT22;7545;52.092;7.006;2023-11-21T09:12:57;9.50;99.90
14908;DHT22;7545;52.092;7.006;2023-11-21T09:15:24;9.50;99.90
14908;DHT22;7545;52.092;7.006;2023-11-21T09:17:50;9.50;99.90
14908;DHT22;7545;52.092;7.006;2023-11-21T09:20:16;9.50;99.90
14908;DHT22;7545;52.092;7.006;2023-11-21T09:22:42;9.50;99.90
14908;DHT22;7545;52.092;7.006;2023-11-21T09:25:10;9.50;99.90
14908;DHT22;7545;52.092;7.006;2023-11-21T09:27:35;9.50;99.90
14908;DHT22;7545;52.092;7.006;2023-11-21T09:30:01;9.50;99.90
14908;DHT22;7545;52.092;7.006;2023-11-21T09:32:27;9.50;99.90
14908;DHT22;7545;52.092;7.006;2023-11-21T09:34:52;9.50;99.90
14908;DHT22;7545;52.092;7.006;2023-11-21T09:37:26;9.40;99.90
14908;DHT22;7545;52.092;7.006;2023-11-21T09:39:55;9.50;99.90
14908;DHT22;7545;52.092;7.006;2023-11-21T09:42:28;9.50;99.90
14908;DHT22;7545;52.092;7.006;2023-11-21T09:45:04;9.50;99.90
14908;DHT22;7545;52.092;7.006;2023-11-21T09:47:32;9.50;99.90
14908;DHT22;7545;52.092;7.006;2023-11-21T09:50:01;9.50;99.90
14908;DHT22;7545;52.092;7.006;2023-11-21T09:52:28;9.60;99.90
14908;DHT22;7545;52.092;7.006;2023-11-21T09:54:54;9.60;99.90
14908;DHT22;7545;52.092;7.006;2023-11-21T09:57:23;9.60;99.90
14908;DHT22;7545;52.092;7.006;2023-11-21T09:59:53;9.60;99.90
14908;DHT22;7545;52.092;7.006;2023-11-21T10:02:26;9.60;99.90
14908;DHT22;7545;52.092;7.006;2023-11-21T10:04:55;9.70;99.90
14908;DHT22;7545;52.092;7.006;2023-11-21T10:07:21;9.70;99.90
14908;DHT22;7545;52.092;7.006;2023-11-21T10:09:47;9.70;99.90
14908;DHT22;7545;52.092;7.006;2023-11-21T10:12:15;9.70;99.90
14908;DHT22;7545;52.092;7.006;2023-11-21T10:14:41;9.70;99.90
14908;DHT22;7545;52.092;7.006;2023-11-21T10:17:08;9.80;99.90
14908;DHT22;7545;52.092;7.006;2023-11-21T10:19:38;9.80;99.90
14908;DHT22;7545;52.092;7.006;2023-11-21T10:22:05;9.80;99.90
14908;DHT22;7545;52.092;7.006;2023-11-21T10:24:32;9.80;99.90
14908;DHT22;7545;52.092;7.006;2023-11-21T10:26:58;9.80;99.90
14908;DHT22;7545;52.092;7.006;2023-11-21T10:29:23;9.80;99.90
14908;DHT22;7545;52.092;7.006;2023-11-21T10:31:52;9.90;99.90
14908;DHT22;7545;52.092;7.006;2023-11-21T10:34:20;9.90;99.90
14908;DHT22;7545;52.092;7.006;2023-11-21T10:36:46;9.90;99.90
14908;DHT22;7545;52.092;7.006;2023-11-21T10:39:20;9.90;99.90
14908;DHT22;7545;52.092;7.006;2023-11-21T10:41:49;9.90;99.90
14908;DHT22;7545;52.092;7.006;2023-11-21T10:44:16;10.00;99.90
14908;DHT22;7545;52.092;7.006;2023-11-21T10:46:53;10.00;99.90
14908;DHT22;7545;52.092;7.006;2023-11-21T10:49:26;10.00;99.90
14908;DHT22;7545;52.092;7.006;2023-11-21T10:51:53;10.00;99.90
14908;DHT22;7545;52.092;7.006;2023-11-21T10:54:20;10.00;99.90
14908;DHT22;7545;52.092;7.006;2023-11-21T10:56:50;10.00;99.90
14908;DHT22;7545;52.092;7.006;2023-11-21T10:59:18;10.10;99.90
14908;DHT22;7545;52.092;7.006;2023-11-21T11:01:46;10.10;99.90
14908;DHT22;7545;52.092;7.006;2023-11-21T11:04:18;10.10;99.90
14908;DHT22;7545;52.092;7.006;2023-11-21T11:06:44;10.10;99.90
14908;DHT22;7545;52.092;7.006;2023-11-21T11:09:13;10.10;99.90
14908;DHT22;7545;52.092;7.006;2023-11-21T11:11:40;10.10;99.90
14908;DHT22;7545;52.092;7.006;2023-11-21T11:14:10;10.10;99.90
14908;DHT22;7545;52.092;7.006;2023-11-21T11:16:37;10.10;99.90
14908;DHT22;7545;52.092;7.006;2023-11-21T11:19:05;10.10;99.90
14908;DHT22;7545;52.092;7.006;2023-11-21T11:33:07;10.10;99.90
14908;DHT22;7545;52.092;7.006;2023-11-21T11:38:36;10.10;99.90
14908;DHT22;7545;52.092;7.006;2023-11-21T11:41:04;10.10;99.90
14908;DHT22;7545;52.092;7.006;2023-11-21T11:43:30;10.10;99.90
14908;DHT22;7545;52.092;7.006;2023-11-21T11:45:59;10.10;99.90
14908;DHT22;7545;52.092;7.006;2023-11-21T11:48:25;10.10;99.90
14908;DHT22;7545;52.092;7.006;2023-11-21T11:51:26;10.10;99.90
14908;DHT22;7545;52.092;7.006;2023-11-21T11:53:51;10.10;99.90
14908;DHT22;7545;52.092;7.006;2023-11-21T11:56:24;10.00;99.90
14908;DHT22;7545;52.092;7.006;2023-11-21T11:58:57;10.10;99.90
14908;DHT22;7545;52.092;7.006;2023-11-21T12:01:25;10.10;99.90
14908;DHT22;7545;52.092;7.006;2023-11-21T12:06:56;10.00;99.90
14908;DHT22;7545;52.092;7.006;2023-11-21T12:09:24;10.00;99.90
14908;DHT22;7545;52.092;7.006;2023-11-21T12:11:52;10.00;99.90
14908;DHT22;7545;52.092;7.006;2023-11-21T12:14:18;10.00;99.90
14908;DHT22;7545;52.092;7.006;2023-11-21T12:16:43;10.10;99.90
14908;DHT22;7545;52.092;7.006;2023-11-21T12:19:12;10.00;99.90
14908;DHT22;7545;52.092;7.006;2023-11-21T12:21:38;10.00;99.90
14908;DHT22;7545;52.092;7.006;2023-11-21T12:24:06;10.00;99.90
14908;DHT22;7545;52.092;7.006;2023-11-21T12:26:34;10.00;99.90
14908;DHT22;7545;52.092;7.006;2023-11-21T12:29:01;10.00;99.90
14908;DHT22;7545;52.092;7.006;2023-11-21T12:31:29;10.00;99.90
14908;DHT22;7545;52.092;7.006;2023-11-21T12:33:55;10.00;99.90
14908;DHT22;7545;52.092;7.006;2023-11-21T12:36:22;9.90;99.90
14908;DHT22;7545;52.092;7.006;2023-11-21T12:38:47;9.90;99.90
14908;DHT22;7545;52.092;7.006;2023-11-21T12:41:13;9.90;99.90
14908;DHT22;7545;52.092;7.006;2023-11-21T12:43:39;9.90;99.90
14908;DHT22;7545;52.092;7.006;2023-11-21T12:46:11;9.90;99.90
14908;DHT22;7545;52.092;7.006;2023-11-21T12:48:41;9.90;99.90
14908;DHT22;7545;52.092;7.006;2023-11-21T12:51:10;9.90;99.90
14908;DHT22;7545;52.092;7.006;2023-11-21T12:53:37;9.90;99.90
14908;DHT22;7545;52.092;7.006;2023-11-21T12:56:10;9.80;99.90
14908;DHT22;7545;52.092;7.006;2023-11-21T12:58:40;9.80;99.90
14908;DHT22;7545;52.092;7.006;2023-11-21T13:01:10;9.90;99.90
14908;DHT22;7545;52.092;7.006;2023-11-21T13:03:38;9.80;99.90
14908;DHT22;7545;52.092;7.006;2023-11-21T13:06:06;9.80;99.90
14908;DHT22;7545;52.092;7.006;2023-11-21T13:08:33;9.70;99.90
14908;DHT22;7545;52.092;7.006;2023-11-21T13:10:59;9.70;99.90
14908;DHT22;7545;52.092;7.006;2023-11-21T13:13:27;9.70;99.90
14908;DHT22;7545;52.092;7.006;2023-11-21T13:16:02;9.70;99.90
14908;DHT22;7545;52.092;7.006;2023-11-21T13:18:31;9.70;99.90
14908;DHT22;7545;52.092;7.006;2023-11-21T13:20:59;9.70;99.90
14908;DHT22;7545;52.092;7.006;2023-11-21T13:23:25;9.80;99.90
14908;DHT22;7545;52.092;7.006;2023-11-21T13:25:52;9.70;99.90
14908;DHT22;7545;52.092;7.006;2023-11-21T13:28:18;9.80;99.90
14908;DHT22;7545;52.092;7.006;2023-11-21T13:30:46;9.70;99.90
14908;DHT22;7545;52.092;7.006;2023-11-21T13:33:13;9.70;99.90
14908;DHT22;7545;52.092;7.006;2023-11-21T13:35:43;9.70;99.90
14908;DHT22;7545;52.092;7.006;2023-11-21T13:38:14;9.70;99.90
14908;DHT22;7545;52.092;7.006;2023-11-21T13:40:46;9.70;99.90
14908;DHT22;7545;52.092;7.006;2023-11-21T13:43:17;9.70;99.90
14908;DHT22;7545;52.092;7.006;2023-11-21T13:45:48;9.60;99.90
14908;DHT22;7545;52.092;7.006;2023-11-21T13:48:17;9.60;99.90
14908;DHT22;7545;52.092;7.006;2023-11-21T13:50:50;9.60;99.90
14908;DHT22;7545;52.092;7.006;2023-11-21T13:53:34;9.50;99.90
14908;DHT22;7545;52.092;7.006;2023-11-21T13:56:02;9.50;99.90
14908;DHT22;7545;52.092;7.006;2023-11-21T13:58:27;9.50;99.90
14908;DHT22;7545;52.092;7.006;2023-11-21T14:01:26;9.50;99.90
14908;DHT22;7545;52.092;7.006;2023-11-21T14:03:55;9.50;99.90
14908;DHT22;7545;52.092;7.006;2023-11-21T14:06:27;9.50;99.90
14908;DHT22;7545;52.092;7.006;2023-11-21T14:09:02;9.50;99.90
14908;DHT22;7545;52.092;7.006;2023-11-21T14:11:32;9.50;99.90
14908;DHT22;7545;52.092;7.006;2023-11-21T14:14:00;9.50;99.90
14908;DHT22;7545;52.092;7.006;2023-11-21T14:16:25;9.50;99.90
14908;DHT22;7545;52.092;7.006;2023-11-21T14:18:51;9.50;99.90
14908;DHT22;7545;52.092;7.006;2023-11-21T14:21:34;9.50;99.90
14908;DHT22;7545;52.092;7.006;2023-11-21T14:24:00;9.40;99.90
14908;DHT22;7545;52.092;7.006;2023-11-21T14:26:26;9.40;99.90
14908;DHT22;7545;52.092;7.006;2023-11-21T14:28:52;9.30;99.90
14908;DHT22;7545;52.092;7.006;2023-11-21T14:31:19;9.40;99.90
14908;DHT22;7545;52.092;7.006;2023-11-21T14:33:44;9.30;99.90
14908;DHT22;7545;52.092;7.006;2023-11-21T14:36:11;9.30;99.90
14908;DHT22;7545;52.092;7.006;2023-11-21T14:38:37;9.30;99.90
14908;DHT22;7545;52.092;7.006;2023-11-21T14:41:06;9.30;99.90
14908;DHT22;7545;52.092;7.006;2023-11-21T14:43:34;9.30;99.90
14908;DHT22;7545;52.092;7.006;2023-11-21T14:46:01;9.30;99.90
14908;DHT22;7545;52.092;7.006;2023-11-21T14:48:28;9.20;99.90
14908;DHT22;7545;52.092;7.006;2023-11-21T14:51:11;9.20;99.90
14908;DHT22;7545;52.092;7.006;2023-11-21T14:53:55;9.30;99.90
14908;DHT22;7545;52.092;7.006;2023-11-21T14:56:26;9.30;99.90
14908;DHT22;7545;52.092;7.006;2023-11-21T14:58:54;9.20;99.90
14908;DHT22;7545;52.092;7.006;2023-11-21T15:01:21;9.20;99.90
14908;DHT22;7545;52.092;7.006;2023-11-21T15:04:10;9.20;99.90
14908;DHT22;7545;52.092;7.006;2023-11-21T15:06:49;9.10;99.90
14908;DHT22;7545;52.092;7.006;2023-11-21T15:09:17;9.10;99.90
14908;DHT22;7545;52.092;7.006;2023-11-21T15:11:43;9.10;99.90
14908;DHT22;7545;52.092;7.006;2023-11-21T15:14:08;9.10;99.90
14908;DHT22;7545;52.092;7.006;2023-11-21T15:16:37;9.10;99.90
14908;DHT22;7545;52.092;7.006;2023-11-21T15:19:12;9.10;99.90
14908;DHT22;7545;52.092;7.006;2023-11-21T15:21:44;9.00;99.90
14908;DHT22;7545;52.092;7.006;2023-11-21T15:24:11;9.00;99.90
14908;DHT22;7545;52.092;7.006;2023-11-21T15:26:40;9.00;99.90
14908;DHT22;7545;52.092;7.006;2023-11-21T15:29:05;9.00;99.90
14908;DHT22;7545;52.092;7.006;2023-11-21T15:31:31;9.00;99.90
14908;DHT22;7545;52.092;7.006;2023-11-21T15:33:57;9.00;99.90
14908;DHT22;7545;52.092;7.006;2023-11-21T15:36:26;8.90;99.90
14908;DHT22;7545;52.092;7.006;2023-11-21T15:38:52;8.90;99.90
14908;DHT22;7545;52.092;7.006;2023-11-21T15:41:18;8.90;99.90
14908;DHT22;7545;52.092;7.006;2023-11-21T15:43:43;8.90;99.90
14908;DHT22;7545;52.092;7.006;2023-11-21T15:46:10;8.90;99.90
14908;DHT22;7545;52.092;7.006;2023-11-21T15:48:35;8.90;99.90
14908;DHT22;7545;52.092;7.006;2023-11-21T15:51:04;8.90;99.90
14908;DHT22;7545;52.092;7.006;2023-11-21T15:53:30;8.90;99.90
14908;DHT22;7545;52.092;7.006;2023-11-21T15:55:56;8.90;99.90
14908;DHT22;7545;52.092;7.006;2023-11-21T15:58:22;8.90;99.90
14908;DHT22;7545;52.092;7.006;2023-11-21T16:00:47;8.90;99.90
14908;DHT22;7545;52.092;7.006;2023-11-21T16:03:13;8.90;99.90
14908;DHT22;7545;52.092;7.006;2023-11-21T16:05:40;8.90;99.90
14908;DHT22;7545;52.092;7.006;2023-11-21T16:08:05;8.80;99.90
14908;DHT22;7545;52.092;7.006;2023-11-21T16:10:31;8.80;99.90
14908;DHT22;7545;52.092;7.006;2023-11-21T16:12:57;8.90;99.90
14908;DHT22;7545;52.092;7.006;2023-11-21T16:15:22;8.80;99.90
14908;DHT22;7545;52.092;7.006;2023-11-21T16:17:48;8.80;99.90
14908;DHT22;7545;52.092;7.006;2023-11-21T16:20:13;8.80;99.90
14908;DHT22;7545;52.092;7.006;2023-11-21T16:22:46;8.80;99.90